Time;durP1;ratioP1;P1;durP2;ratioP2;P2;SDS_P1;SDS_P2;PMS_P1;PMS_P2;Temp;Humidity;BMP_temperature;BMP_pressure;BME280_temperature;BME280_humidity;BME280_pressure;Samples;Min_cycle;Max_cycle;Signal;HPM_P1;HPM_P2
2022/11/04 00:01:37;;;;;;;331.10;319.63;;;10.00;99.90;;;;;;4937614;29;20477;-83
2022/11/04 00:04:05;;;;;;;317.00;305.90;;;10.10;99.90;;;;;;4937877;29;20456;-83
2022/11/04 00:06:32;;;;;;;316.50;305.60;;;10.00;99.90;;;;;;4937866;29;20542;-84
2022/11/04 00:09:00;;;;;;;294.43;284.53;;;10.10;99.90;;;;;;4937568;29;20452;-83
2022/11/04 00:14:13;;;;;;;268.27;259.47;;;10.10;99.90;;;;;;4938242;29;20815;-83
2022/11/04 00:19:25;;;;;;;266.60;258.10;;;10.00;99.90;;;;;;4937577;29;20567;-83
2022/11/04 00:30:09;;;;;;;368.30;355.17;;;10.00;99.90;;;;;;4937244;29;20488;-83
2022/11/04 00:35:22;;;;;;;329.07;317.70;;;10.20;99.90;;;;;;4937293;29;20440;-83
2022/11/04 00:37:48;;;;;;;318.07;307.23;;;10.20;99.90;;;;;;4936906;29;20986;-82
2022/11/04 00:40:16;;;;;;;330.90;319.47;;;10.30;99.90;;;;;;4936750;29;20593;-83
2022/11/04 00:42:44;;;;;;;276.03;266.23;;;10.30;99.90;;;;;;4936377;29;20520;-82
2022/11/04 00:45:11;;;;;;;235.43;227.73;;;10.40;99.90;;;;;;4936638;29;20461;-83
2022/11/04 00:47:38;;;;;;;261.17;252.53;;;10.50;99.90;;;;;;4936451;29;20461;-83
2022/11/04 00:50:05;;;;;;;275.33;265.63;;;10.50;99.90;;;;;;4936278;29;20464;-83
2022/11/04 00:52:33;;;;;;;307.17;296.00;;;10.50;99.90;;;;;;4936244;29;20558;-83
2022/11/04 00:55:00;;;;;;;336.80;324.53;;;10.40;99.90;;;;;;4935945;29;20461;-83
2022/11/04 00:57:27;;;;;;;339.30;326.73;;;10.40;99.90;;;;;;4937033;29;20467;-83
2022/11/04 00:59:53;;;;;;;318.57;307.00;;;10.40;99.90;;;;;;4936938;29;20487;-83
2022/11/04 01:02:20;;;;;;;333.70;321.80;;;10.40;99.90;;;;;;4936597;29;20892;-83
2022/11/04 01:04:47;;;;;;;279.87;270.07;;;10.40;99.90;;;;;;4936567;29;20456;-83
2022/11/04 01:07:14;;;;;;;293.00;282.17;;;10.40;99.90;;;;;;4936659;29;20855;-83
2022/11/04 01:09:42;;;;;;;276.97;267.57;;;10.50;99.90;;;;;;4936687;29;20958;-83
2022/11/04 01:12:09;;;;;;;256.20;247.70;;;10.50;99.90;;;;;;4935660;29;20476;-83
2022/11/04 01:14:35;;;;;;;278.27;268.87;;;10.50;99.90;;;;;;4936133;29;20484;-83
2022/11/04 01:17:02;;;;;;;241.47;233.47;;;10.40;99.90;;;;;;4936075;29;20463;-82
2022/11/04 01:19:29;;;;;;;222.23;214.90;;;10.40;99.90;;;;;;4935750;29;20481;-83
2022/11/04 01:21:56;;;;;;;186.00;179.90;;;10.40;99.90;;;;;;4935860;29;20476;-83
2022/11/04 01:24:22;;;;;;;200.47;193.80;;;10.30;99.90;;;;;;4936204;29;20464;-83
2022/11/04 01:26:50;;;;;;;211.90;204.30;;;10.30;99.90;;;;;;4936519;29;20483;-83
2022/11/04 01:29:17;;;;;;;176.50;170.60;;;10.20;99.90;;;;;;4936120;29;20449;-83
2022/11/04 01:31:44;;;;;;;202.30;195.60;;;10.10;99.90;;;;;;4935473;29;20476;-82
2022/11/04 01:34:10;;;;;;;236.13;228.33;;;10.10;99.90;;;;;;4935627;29;20464;-83
2022/11/04 01:36:37;;;;;;;268.97;260.27;;;9.90;99.90;;;;;;4935348;29;20464;-82
2022/11/04 01:39:04;;;;;;;311.20;300.40;;;9.90;99.90;;;;;;4935473;29;20508;-83
2022/11/04 01:41:33;;;;;;;265.20;256.43;;;9.80;99.90;;;;;;4935002;29;20484;-83
2022/11/04 01:44:03;;;;;;;266.00;257.20;;;9.90;99.90;;;;;;4935159;29;20464;-83
2022/11/04 01:46:36;;;;;;;297.40;287.13;;;9.90;99.90;;;;;;4935201;29;20460;-83
2022/11/04 01:49:09;;;;;;;325.10;313.40;;;9.70;99.90;;;;;;4934802;29;21011;-83
2022/11/04 01:51:37;;;;;;;354.17;341.40;;;9.70;99.90;;;;;;4935185;29;20532;-83
2022/11/04 01:54:06;;;;;;;406.53;391.47;;;9.50;99.90;;;;;;4935181;29;20978;-83
2022/11/04 01:56:33;;;;;;;432.37;416.03;;;9.40;99.90;;;;;;4935155;29;20461;-82
2022/11/04 01:59:07;;;;;;;459.70;441.37;;;9.40;99.90;;;;;;4934877;29;20961;-82
2022/11/04 02:01:34;;;;;;;475.27;456.17;;;9.40;99.90;;;;;;4934847;29;20483;-83
2022/11/04 02:04:24;;;;;;;477.27;457.10;;;9.20;99.90;;;;;;4934854;29;20453;-82
2022/11/04 02:06:49;;;;;;;481.63;461.70;;;9.30;99.90;;;;;;4934720;29;20550;-82
2022/11/04 02:09:20;;;;;;;508.23;486.60;;;9.10;99.90;;;;;;4935135;29;20452;-83
2022/11/04 02:14:35;;;;;;;535.17;511.30;;;9.10;99.90;;;;;;4935058;29;20532;-82
2022/11/04 02:17:10;;;;;;;550.77;525.77;;;9.00;99.90;;;;;;4934853;29;20457;-82
2022/11/04 02:19:58;;;;;;;548.83;523.27;;;8.90;99.90;;;;;;4934888;29;20487;-83
2022/11/04 02:22:49;;;;;;;566.37;539.27;;;8.90;99.90;;;;;;4934750;29;20873;-82
2022/11/04 02:25:32;;;;;;;586.67;559.13;;;8.80;99.90;;;;;;4934691;29;20970;-83
2022/11/04 02:28:26;;;;;;;625.23;593.53;;;8.70;99.90;;;;;;4934735;29;20456;-82
2022/11/04 02:31:01;;;;;;;637.17;603.20;;;8.60;99.90;;;;;;4934795;29;20852;-83
2022/11/04 02:33:36;;;;;;;656.03;619.70;;;8.60;99.90;;;;;;4934708;29;20456;-83
2022/11/04 02:36:20;;;;;;;676.20;637.17;;;8.60;99.90;;;;;;4935047;29;20838;-83
2022/11/04 02:38:53;;;;;;;690.40;650.70;;;8.50;99.90;;;;;;4937430;29;20472;-82
2022/11/04 02:41:31;;;;;;;687.87;648.37;;;8.40;99.90;;;;;;4934392;29;20524;-82
2022/11/04 02:44:08;;;;;;;693.07;652.37;;;8.50;99.90;;;;;;4934827;29;20463;-82
2022/11/04 02:46:40;;;;;;;699.23;658.17;;;8.40;99.90;;;;;;4934733;29;20456;-83
2022/11/04 02:49:12;;;;;;;734.63;689.60;;;8.40;99.90;;;;;;4934445;29;20453;-83
2022/11/04 02:51:44;;;;;;;726.43;681.30;;;8.30;99.90;;;;;;4934522;29;20484;-82
2022/11/04 02:54:15;;;;;;;730.33;683.27;;;8.30;99.90;;;;;;4935900;29;20456;-82
2022/11/04 02:56:46;;;;;;;738.23;690.27;;;8.30;99.90;;;;;;4934638;29;20484;-83
2022/11/04 02:59:20;;;;;;;752.97;703.90;;;8.20;99.90;;;;;;4934430;29;20571;-83
2022/11/04 03:01:49;;;;;;;764.37;714.37;;;8.00;99.90;;;;;;4934509;29;20477;-82
2022/11/04 03:04:21;;;;;;;781.43;730.53;;;8.00;99.90;;;;;;4934597;29;20464;-83
2022/11/04 03:06:50;;;;;;;772.13;721.57;;;8.10;99.90;;;;;;4934601;29;20461;-82
2022/11/04 03:09:19;;;;;;;757.73;708.17;;;8.20;99.90;;;;;;4934358;29;20461;-82
2022/11/04 03:11:50;;;;;;;759.77;711.97;;;8.20;99.90;;;;;;4933975;29;20488;-82
2022/11/04 03:14:20;;;;;;;730.73;683.43;;;8.30;99.90;;;;;;4934508;29;20824;-82
2022/11/04 03:16:50;;;;;;;722.93;678.13;;;8.30;99.90;;;;;;4934853;29;20934;-83
2022/11/04 03:19:27;;;;;;;706.30;664.57;;;8.20;99.90;;;;;;4937888;29;20480;-82
2022/11/04 03:21:59;;;;;;;699.43;660.37;;;8.20;99.90;;;;;;4937613;29;20511;-83
2022/11/04 03:24:26;;;;;;;698.03;661.13;;;8.00;99.90;;;;;;4938025;29;20464;-83
2022/11/04 03:26:59;;;;;;;718.13;679.37;;;7.80;99.90;;;;;;4937963;29;20463;-82
2022/11/04 03:29:30;;;;;;;725.40;686.27;;;7.70;99.90;;;;;;4937824;29;20463;-82
2022/11/04 03:32:05;;;;;;;737.20;695.33;;;7.60;99.90;;;;;;4937567;29;20503;-82
2022/11/04 03:34:33;;;;;;;753.27;707.77;;;7.50;99.90;;;;;;4937422;29;20468;-82
2022/11/04 03:37:00;;;;;;;772.00;723.43;;;7.50;99.90;;;;;;4937371;29;20469;-82
2022/11/04 03:39:27;;;;;;;788.63;736.73;;;7.70;99.90;;;;;;4937260;29;20999;-82
2022/11/04 03:41:56;;;;;;;786.80;734.27;;;7.80;99.90;;;;;;4936982;29;20489;-82
2022/11/04 03:44:23;;;;;;;797.07;742.77;;;7.70;99.90;;;;;;4937659;29;20498;-82
2022/11/04 03:46:52;;;;;;;789.23;736.43;;;7.80;99.90;;;;;;4937316;29;20460;-82
2022/11/04 03:49:22;;;;;;;786.00;733.40;;;7.70;99.90;;;;;;4938863;29;20527;-82
2022/11/04 03:51:49;;;;;;;773.90;723.23;;;7.70;99.90;;;;;;4936947;29;20540;-82
2022/11/04 03:54:16;;;;;;;707.40;664.60;;;7.80;99.90;;;;;;4937221;29;20959;-82
2022/11/04 03:57:09;;;;;;;660.03;624.13;;;8.00;99.90;;;;;;4937331;29;20463;-82
2022/11/04 04:00:10;;;;;;;612.13;581.10;;;8.00;99.90;;;;;;4938915;29;20488;-82
2022/11/04 04:02:51;;;;;;;560.73;532.63;;;8.00;99.90;;;;;;4936366;29;20476;-83
2022/11/04 04:05:26;;;;;;;566.00;539.33;;;8.10;99.90;;;;;;4936885;29;20461;-82
2022/11/04 04:08:00;;;;;;;561.23;534.83;;;8.00;99.90;;;;;;4937214;29;20547;-82
2022/11/04 04:10:39;;;;;;;549.27;523.77;;;7.90;99.90;;;;;;4938149;29;20463;-82
2022/11/04 04:13:19;;;;;;;556.57;530.57;;;7.80;99.90;;;;;;4936952;29;20508;-82
2022/11/04 04:15:51;;;;;;;575.57;548.47;;;7.90;99.90;;;;;;4936783;29;20467;-83
2022/11/04 04:18:26;;;;;;;574.93;548.60;;;7.90;99.90;;;;;;4936829;29;20464;-82
2022/11/04 04:20:56;;;;;;;579.63;553.33;;;7.70;99.90;;;;;;4936404;29;20487;-82
2022/11/04 04:29:00;;;;;;;678.90;643.77;;;7.10;99.90;;;;;;4936413;29;20483;-82
2022/11/04 04:34:12;;;;;;;743.90;699.43;;;6.80;99.90;;;;;;4936530;29;20464;-82
2022/11/04 04:36:46;;;;;;;781.83;732.37;;;6.80;99.90;;;;;;4936294;29;20457;-82
2022/11/04 04:45:02;;;;;;;783.37;732.57;;;6.70;99.90;;;;;;4984704;28;21070;-84
2022/11/04 04:47:34;;;;;;;807.50;754.73;;;6.50;99.90;;;;;;4982961;28;20454;-84
2022/11/04 04:50:02;;;;;;;811.43;755.67;;;6.50;99.90;;;;;;4981933;28;20447;-85
2022/11/04 04:52:34;;;;;;;812.37;755.77;;;6.50;99.90;;;;;;4980709;28;20466;-84
2022/11/04 04:55:00;;;;;;;813.40;757.00;;;6.60;99.90;;;;;;4982564;28;20466;-84
2022/11/04 04:57:27;;;;;;;816.37;760.57;;;6.60;99.90;;;;;;4982943;28;20478;-84
2022/11/04 04:59:54;;;;;;;801.93;746.93;;;6.60;99.90;;;;;;4982423;28;20483;-84
2022/11/04 05:02:21;;;;;;;796.47;741.47;;;6.80;99.90;;;;;;4982394;28;20486;-84
2022/11/04 05:04:47;;;;;;;775.33;718.83;;;6.80;99.90;;;;;;4982141;28;20459;-84
2022/11/04 05:07:14;;;;;;;763.57;709.17;;;6.80;99.90;;;;;;4981963;28;20455;-84
2022/11/04 05:09:42;;;;;;;746.67;695.10;;;6.90;99.90;;;;;;4981900;28;20454;-84
2022/11/04 05:12:09;;;;;;;734.63;685.73;;;7.00;99.90;;;;;;4982801;28;20479;-84
2022/11/04 05:14:36;;;;;;;740.27;691.47;;;6.80;99.90;;;;;;4983449;28;20451;-84
2022/11/04 05:17:03;;;;;;;739.47;691.67;;;6.80;99.90;;;;;;4982744;28;20466;-84
2022/11/04 05:19:30;;;;;;;739.13;691.53;;;6.70;99.90;;;;;;4982666;28;20503;-84
2022/11/04 05:21:56;;;;;;;730.40;684.23;;;6.70;99.90;;;;;;4981818;28;20481;-84
2022/11/04 05:24:23;;;;;;;721.60;677.03;;;6.70;99.90;;;;;;4982040;28;20459;-84
2022/11/04 05:26:53;;;;;;;728.30;681.00;;;6.80;99.90;;;;;;4981912;28;20459;-84
2022/11/04 05:29:20;;;;;;;719.23;673.70;;;6.70;99.90;;;;;;4982718;28;20476;-84
2022/11/04 05:31:49;;;;;;;703.73;660.37;;;6.80;99.90;;;;;;4982686;28;20488;-84
2022/11/04 05:34:16;;;;;;;682.33;641.80;;;6.90;99.90;;;;;;4983970;28;20455;-84
2022/11/04 05:36:42;;;;;;;678.97;637.50;;;6.70;99.90;;;;;;4983443;28;20486;-85
2022/11/04 05:39:12;;;;;;;664.83;625.53;;;6.70;99.90;;;;;;4984596;28;20463;-84
2022/11/04 05:41:39;;;;;;;666.17;626.57;;;6.30;99.90;;;;;;4983375;28;20582;-84
2022/11/04 05:44:52;;;;;;;735.23;689.63;;;6.20;99.90;;;;;;4984177;28;20531;-84
2022/11/04 05:47:19;;;;;;;790.70;740.87;;;6.10;99.90;;;;;;4943389;29;20452;-85
2022/11/04 05:49:45;;;;;;;806.03;752.87;;;6.00;99.90;;;;;;4979384;28;20451;-84
2022/11/04 05:52:12;;;;;;;822.57;764.70;;;5.90;99.90;;;;;;4983867;28;20475;-85
2022/11/04 05:54:42;;;;;;;825.50;765.20;;;5.80;99.90;;;;;;4985088;28;20538;-85
2022/11/04 05:57:09;;;;;;;826.37;763.90;;;5.80;99.90;;;;;;4984373;28;20988;-84
2022/11/04 05:59:36;;;;;;;832.40;768.47;;;5.80;99.90;;;;;;4984648;28;20487;-84
2022/11/04 06:02:04;;;;;;;845.33;777.43;;;5.70;99.90;;;;;;4985547;28;20479;-84
2022/11/04 06:04:31;;;;;;;857.93;788.93;;;5.70;99.90;;;;;;4985734;28;20457;-84
2022/11/04 06:06:58;;;;;;;862.70;791.13;;;5.60;99.90;;;;;;4985945;28;20459;-84
2022/11/04 06:09:37;;;;;;;862.03;789.00;;;5.80;99.90;;;;;;4986381;28;20849;-84
2022/11/04 06:12:06;;;;;;;856.57;782.63;;;5.80;99.90;;;;;;4984125;28;20609;-85
2022/11/04 06:14:33;;;;;;;851.40;777.83;;;5.80;99.90;;;;;;4984681;28;20455;-85
2022/11/04 06:17:00;;;;;;;849.47;777.70;;;5.80;99.90;;;;;;4984345;28;20466;-85
2022/11/04 06:19:28;;;;;;;855.10;782.03;;;5.90;99.90;;;;;;4984777;28;20475;-85
2022/11/04 06:21:57;;;;;;;862.20;788.50;;;5.80;99.90;;;;;;4983503;28;20534;-84
2022/11/04 06:24:23;;;;;;;866.90;795.10;;;5.90;99.90;;;;;;4983397;28;20535;-84
2022/11/04 06:26:50;;;;;;;874.10;806.47;;;5.80;99.90;;;;;;4982609;28;20458;-84
2022/11/04 06:29:17;;;;;;;839.10;774.80;;;5.70;99.90;;;;;;4982302;28;20466;-84
2022/11/04 06:31:43;;;;;;;857.53;789.70;;;5.60;99.90;;;;;;4982684;28;20479;-84
2022/11/04 06:34:10;;;;;;;846.40;775.70;;;5.80;99.90;;;;;;4982842;28;20459;-84
2022/11/04 06:36:39;;;;;;;853.43;781.70;;;5.90;99.90;;;;;;4982837;28;20465;-84
2022/11/04 06:39:05;;;;;;;841.67;771.53;;;5.90;99.90;;;;;;4982444;28;20462;-84
2022/11/04 06:41:32;;;;;;;858.80;787.83;;;5.70;99.90;;;;;;4981953;28;20482;-85
2022/11/04 06:43:59;;;;;;;850.87;777.80;;;5.80;99.90;;;;;;4982525;28;20454;-84
2022/11/04 06:46:28;;;;;;;832.30;759.50;;;5.80;99.90;;;;;;4981728;28;20459;-84
2022/11/04 06:48:56;;;;;;;795.40;724.40;;;6.10;99.90;;;;;;4979616;28;21012;-84
2022/11/04 06:51:23;;;;;;;803.40;731.57;;;6.10;99.90;;;;;;4980546;28;20546;-84
2022/11/04 06:53:51;;;;;;;810.53;738.07;;;6.20;99.90;;;;;;4982790;28;20462;-84
2022/11/04 06:56:17;;;;;;;819.17;747.00;;;6.30;99.90;;;;;;4985355;28;20462;-84
2022/11/04 06:58:47;;;;;;;827.17;753.00;;;6.40;99.90;;;;;;4982415;28;20454;-85
2022/11/04 07:01:14;;;;;;;809.23;735.47;;;6.50;99.90;;;;;;4981870;28;20525;-84
2022/11/04 07:03:41;;;;;;;812.00;738.17;;;6.60;99.90;;;;;;4983482;28;20462;-84
2022/11/04 07:06:09;;;;;;;820.30;746.40;;;6.70;99.90;;;;;;4983175;28;20462;-84
2022/11/04 07:08:36;;;;;;;824.17;749.90;;;6.80;99.90;;;;;;4982385;28;20462;-84
2022/11/04 07:11:05;;;;;;;828.37;756.33;;;7.00;99.90;;;;;;4982916;28;20470;-84
2022/11/04 07:13:31;;;;;;;817.70;746.87;;;7.10;99.90;;;;;;4982035;28;20454;-84
2022/11/04 07:15:58;;;;;;;821.93;751.53;;;7.30;99.90;;;;;;4982104;28;20466;-83
2022/11/04 07:18:25;;;;;;;818.83;750.37;;;7.40;99.90;;;;;;4983147;28;20454;-85
2022/11/04 07:20:52;;;;;;;817.77;751.67;;;7.50;99.90;;;;;;4980991;28;20483;-84
2022/11/04 07:23:19;;;;;;;794.57;732.37;;;7.60;99.90;;;;;;4983180;28;20475;-84
2022/11/04 07:25:46;;;;;;;795.63;734.33;;;7.60;99.90;;;;;;4982385;28;20455;-84
2022/11/04 07:28:14;;;;;;;797.00;734.93;;;7.70;99.90;;;;;;4982522;28;20459;-84
2022/11/04 07:30:41;;;;;;;794.03;733.50;;;7.70;99.90;;;;;;4983593;28;20455;-84
2022/11/04 07:33:08;;;;;;;786.57;727.77;;;7.80;99.90;;;;;;4984008;28;20537;-84
2022/11/04 07:35:36;;;;;;;783.83;726.53;;;7.80;99.90;;;;;;4985751;28;20455;-85
2022/11/04 07:38:03;;;;;;;774.40;719.50;;;7.90;99.90;;;;;;4987958;28;20466;-84
2022/11/04 07:40:33;;;;;;;757.93;705.93;;;8.00;99.90;;;;;;4985155;28;20545;-84
2022/11/04 07:43:00;;;;;;;746.10;695.50;;;8.10;99.90;;;;;;4986290;28;20483;-85
2022/11/04 07:45:28;;;;;;;726.53;678.50;;;8.00;99.90;;;;;;4988490;28;20459;-85
2022/11/04 07:47:54;;;;;;;723.93;676.23;;;8.10;99.90;;;;;;4988202;28;20450;-84
2022/11/04 07:50:21;;;;;;;717.10;671.20;;;8.20;99.90;;;;;;4986872;28;20800;-84
2022/11/04 07:52:49;;;;;;;729.70;683.60;;;8.20;99.90;;;;;;4984753;28;20478;-84
2022/11/04 07:55:17;;;;;;;731.13;684.17;;;8.30;99.90;;;;;;4985603;28;21004;-85
2022/11/04 07:57:44;;;;;;;743.90;696.07;;;8.40;99.90;;;;;;4985826;28;20451;-85
2022/11/04 08:00:13;;;;;;;730.33;683.60;;;8.40;99.90;;;;;;4984691;28;20525;-83
2022/11/04 08:02:43;;;;;;;731.87;686.37;;;8.50;99.90;;;;;;4984382;28;20885;-85
2022/11/04 08:05:10;;;;;;;710.80;667.00;;;8.60;99.90;;;;;;4985829;28;20538;-84
2022/11/04 08:07:37;;;;;;;669.83;630.40;;;8.60;99.90;;;;;;4986037;28;20542;-84
2022/11/04 08:10:05;;;;;;;658.83;622.07;;;8.80;99.90;;;;;;4985439;28;20451;-85
2022/11/04 08:12:32;;;;;;;638.43;604.43;;;8.80;99.90;;;;;;4985431;28;20509;-85
2022/11/04 08:14:59;;;;;;;639.60;605.73;;;8.80;99.90;;;;;;4985640;28;20498;-84
2022/11/04 08:17:26;;;;;;;602.50;571.23;;;8.80;99.90;;;;;;4985379;28;20455;-84
2022/11/04 08:19:54;;;;;;;569.50;541.30;;;8.80;99.90;;;;;;4985624;28;20490;-84
2022/11/04 08:22:21;;;;;;;565.03;537.97;;;8.70;99.90;;;;;;4985332;28;20551;-85
2022/11/04 08:24:47;;;;;;;585.27;556.50;;;8.80;99.90;;;;;;4984267;28;20464;-85
2022/11/04 08:27:14;;;;;;;610.67;580.57;;;8.80;99.90;;;;;;4984875;28;20566;-85
2022/11/04 08:29:41;;;;;;;650.97;616.77;;;8.80;99.90;;;;;;4986773;28;21023;-86
2022/11/04 08:32:08;;;;;;;670.60;634.07;;;8.90;99.90;;;;;;4984880;28;20514;-84
2022/11/04 08:34:35;;;;;;;680.57;642.57;;;9.00;99.90;;;;;;4984581;28;20459;-84
2022/11/04 08:37:03;;;;;;;683.30;643.10;;;9.10;99.90;;;;;;4984409;28;20465;-83
2022/11/04 08:39:29;;;;;;;667.67;630.13;;;9.20;99.90;;;;;;4984227;28;20490;-85
2022/11/04 08:41:56;;;;;;;665.77;628.30;;;9.30;99.90;;;;;;4984054;28;20483;-84
2022/11/04 08:44:24;;;;;;;651.57;615.43;;;9.40;99.90;;;;;;4984605;28;20459;-84
2022/11/04 08:46:51;;;;;;;634.07;600.00;;;9.50;99.90;;;;;;4984187;28;20463;-84
2022/11/04 08:49:18;;;;;;;618.40;585.57;;;9.70;99.90;;;;;;4984019;28;20459;-84
2022/11/04 08:51:48;;;;;;;601.13;570.33;;;9.80;99.90;;;;;;4982721;28;20486;-85
2022/11/04 08:54:16;;;;;;;563.60;536.20;;;9.80;99.90;;;;;;4982967;28;20455;-86
2022/11/04 08:56:43;;;;;;;579.63;551.93;;;9.90;99.90;;;;;;4982492;28;20463;-84
2022/11/04 08:59:10;;;;;;;556.13;530.43;;;10.00;99.90;;;;;;4982080;28;20466;-84
2022/11/04 09:01:37;;;;;;;548.10;523.47;;;10.00;99.90;;;;;;4981760;28;20510;-84
2022/11/04 09:04:04;;;;;;;516.93;493.53;;;10.10;99.90;;;;;;4982404;28;20470;-84
2022/11/04 09:06:34;;;;;;;501.87;480.67;;;10.20;99.90;;;;;;4981863;28;20486;-84
2022/11/04 09:09:03;;;;;;;466.13;447.43;;;10.30;99.90;;;;;;4982054;28;20454;-83
2022/11/04 09:11:32;;;;;;;460.83;442.37;;;10.40;99.90;;;;;;4981847;28;20471;-84
2022/11/04 09:14:00;;;;;;;484.77;465.13;;;10.50;99.90;;;;;;4982250;28;20460;-84
2022/11/04 09:16:28;;;;;;;485.23;465.60;;;10.60;99.90;;;;;;4981956;28;20458;-84
2022/11/04 09:18:56;;;;;;;492.40;471.23;;;10.80;99.90;;;;;;4984554;28;20925;-84
2022/11/04 09:21:24;;;;;;;491.83;471.00;;;11.20;99.90;;;;;;4983734;28;21008;-83
2022/11/04 09:23:54;;;;;;;353.43;339.50;;;11.60;99.90;;;;;;4983598;28;20439;-84
2022/11/04 09:26:23;;;;;;;271.77;261.63;;;11.80;99.90;;;;;;4983527;28;20846;-85
2022/11/04 09:28:55;;;;;;;235.93;227.87;;;12.00;99.90;;;;;;4983273;28;20570;-85
2022/11/04 09:31:22;;;;;;;202.67;195.47;;;12.10;99.90;;;;;;4981579;28;21008;-85
2022/11/04 09:33:49;;;;;;;147.67;141.57;;;12.20;99.90;;;;;;4981662;28;20549;-85
2022/11/04 09:36:16;;;;;;;74.07;70.67;;;12.20;99.90;;;;;;4978506;28;21060;-84
2022/11/04 09:38:43;;;;;;;50.57;48.07;;;12.20;99.90;;;;;;4977606;28;20459;-84
2022/11/04 09:41:28;;;;;;;16.43;15.10;;;12.10;99.90;;;;;;4976852;28;20483;-84
2022/11/04 09:44:04;;;;;;;12.30;11.13;;;11.90;99.90;;;;;;4976855;28;20977;-84
2022/11/04 09:46:33;;;;;;;17.90;16.60;;;11.70;99.90;;;;;;4977257;28;20469;-84
2022/11/04 09:49:02;;;;;;;28.20;26.40;;;11.50;99.90;;;;;;4975998;28;20489;-86
2022/11/04 09:51:29;;;;;;;35.03;33.33;;;11.50;99.90;;;;;;4979148;28;20471;-85
2022/11/04 09:53:59;;;;;;;76.37;73.37;;;11.50;99.90;;;;;;4977360;28;20455;-84
2022/11/04 09:56:31;;;;;;;125.07;119.70;;;11.50;99.90;;;;;;4977217;28;20611;-84
2022/11/04 09:59:02;;;;;;;116.60;112.10;;;11.60;99.90;;;;;;4976530;28;20459;-84
2022/11/04 10:01:37;;;;;;;76.50;73.03;;;11.50;99.90;;;;;;4976606;28;20992;-84
2022/11/04 10:04:23;;;;;;;82.13;78.23;;;11.60;99.90;;;;;;4977531;28;20454;-84
2022/11/04 10:07:03;;;;;;;142.50;136.80;;;11.60;99.90;;;;;;4977260;28;20832;-85
2022/11/04 10:09:44;;;;;;;138.93;133.93;;;11.80;99.90;;;;;;4977191;28;20458;-84
2022/11/04 10:12:20;;;;;;;88.33;84.33;;;11.80;99.90;;;;;;4978798;28;20474;-84
2022/11/04 10:15:12;;;;;;;92.50;88.93;;;11.80;99.90;;;;;;4982059;28;20469;-84
2022/11/04 10:17:58;;;;;;;86.77;82.23;;;11.90;99.90;;;;;;4978847;28;20466;-86
2022/11/04 10:20:38;;;;;;;129.90;124.70;;;12.00;99.90;;;;;;4979786;28;20466;-85
2022/11/04 10:23:18;;;;;;;115.13;110.50;;;12.30;99.90;;;;;;4979424;28;20486;-85
2022/11/04 10:25:48;;;;;;;56.13;53.33;;;12.50;99.90;;;;;;4980457;28;20461;-85
2022/11/04 10:28:18;;;;;;;26.43;24.30;;;12.90;99.90;;;;;;4983620;28;20482;-84
2022/11/04 10:30:49;;;;;;;25.77;24.00;;;13.00;99.90;;;;;;4983976;28;20450;-84
2022/11/04 10:33:25;;;;;;;23.07;21.13;;;13.10;99.90;;;;;;4984097;28;20531;-83
2022/11/04 10:35:57;;;;;;;20.87;18.30;;;13.30;99.90;;;;;;4984493;28;20455;-84
2022/11/04 10:38:32;;;;;;;20.77;10.77;;;13.30;99.90;;;;;;4960229;28;20488;-84
2022/11/04 10:40:58;;;;;;;31.67;18.17;;;13.10;99.90;;;;;;4966131;29;20471;-84
2022/11/04 10:43:31;;;;;;;41.33;24.37;;;13.10;99.90;;;;;;5028787;23;20487;-84
2022/11/04 10:46:21;;;;;;;17.73;11.43;;;13.10;99.90;;;;;;5016364;28;20457;-83
2022/11/04 10:48:53;;;;;;;11.17;8.53;;;13.20;99.90;;;;;;5015866;28;20461;-84
2022/11/04 10:51:21;;;;;;;11.77;6.47;;;13.40;99.90;;;;;;5016242;28;20453;-83
2022/11/04 10:53:50;;;;;;;15.20;7.53;;;13.30;99.90;;;;;;5016718;28;20485;-83
2022/11/04 10:56:22;;;;;;;36.53;19.90;;;13.30;99.90;;;;;;5016879;28;20457;-83
2022/11/04 10:58:49;;;;;;;64.40;37.90;;;13.00;99.90;;;;;;5016399;28;20463;-84
2022/11/04 11:01:26;;;;;;;20.03;8.90;;;12.90;99.90;;;;;;5015863;28;20483;-83
2022/11/04 11:03:53;;;;;;;12.03;5.63;;;12.90;99.90;;;;;;5016620;28;20629;-83
2022/11/04 11:06:28;;;;;;;11.07;4.90;;;12.80;99.90;;;;;;5016020;28;20465;-83
2022/11/04 11:08:58;;;;;;;12.00;4.37;;;12.60;99.90;;;;;;5015937;28;20453;-83
2022/11/04 11:11:40;;;;;;;6.57;4.37;;;12.50;99.90;;;;;;5015639;28;20460;-83
2022/11/04 11:14:17;;;;;;;10.20;3.53;;;12.30;99.90;;;;;;5015669;28;20452;-83
2022/11/04 11:16:46;;;;;;;5.10;2.20;;;12.20;99.90;;;;;;5015706;28;20480;-83
2022/11/04 11:19:17;;;;;;;5.17;2.40;;;12.00;99.90;;;;;;5015566;28;20487;-83
2022/11/04 11:21:46;;;;;;;13.60;2.87;;;11.90;99.90;;;;;;5015198;28;20499;-83
2022/11/04 11:24:16;;;;;;;13.60;3.73;;;11.80;99.90;;;;;;5015797;28;20461;-83
2022/11/04 11:26:47;;;;;;;8.50;5.77;;;11.70;99.90;;;;;;5016446;28;20464;-83
2022/11/04 11:29:20;;;;;;;8.10;7.30;;;11.60;99.90;;;;;;5015480;28;20986;-83
2022/11/04 11:34:26;;;;;;;18.70;17.60;;;11.50;99.90;;;;;;5742092;23;20486;-84
2022/11/04 11:36:56;;;;;;;30.83;29.43;;;11.40;99.90;;;;;;4982598;28;20459;-82
2022/11/04 11:39:26;;;;;;;31.30;29.80;;;11.60;99.90;;;;;;4978784;28;20462;-84
2022/11/04 11:41:58;;;;;;;68.60;65.40;;;11.40;99.90;;;;;;4979264;28;20917;-85
2022/11/04 11:44:30;;;;;;;114.13;107.73;;;11.30;99.90;;;;;;4978556;28;20466;-82
2022/11/04 11:47:00;;;;;;;132.10;127.60;;;11.30;99.90;;;;;;4977707;28;20847;-82
2022/11/04 11:49:32;;;;;;;151.30;146.00;;;11.30;99.90;;;;;;4975822;28;20461;-82
2022/11/04 11:52:27;;;;;;;230.40;222.03;;;11.30;99.90;;;;;;4976405;28;20471;-82
2022/11/04 11:55:00;;;;;;;258.67;250.00;;;11.40;99.90;;;;;;4976257;28;20459;-82
2022/11/04 11:57:41;;;;;;;320.73;309.87;;;11.50;99.90;;;;;;4977356;28;20455;-83
2022/11/04 12:00:14;;;;;;;360.63;347.63;;;11.60;99.90;;;;;;4975157;28;20486;-83
2022/11/04 12:02:51;;;;;;;408.77;393.17;;;11.70;99.90;;;;;;4977534;28;20865;-83
2022/11/04 12:05:28;;;;;;;416.83;401.00;;;12.00;99.90;;;;;;4975148;28;20459;-83
2022/11/04 12:08:00;;;;;;;287.20;277.40;;;12.10;99.90;;;;;;4975960;28;20510;-83
2022/11/04 12:10:36;;;;;;;224.40;217.20;;;12.20;99.90;;;;;;4974821;28;20537;-83
2022/11/04 12:13:14;;;;;;;100.80;96.90;;;12.40;99.90;;;;;;4975287;28;20470;-83
2022/11/04 12:16:06;;;;;;;50.60;48.40;;;12.60;99.90;;;;;;4974938;28;20459;-83
2022/11/04 12:18:49;;;;;;;64.20;61.37;;;12.50;99.90;;;;;;4975493;28;20462;-83
2022/11/04 12:21:20;;;;;;;25.80;24.03;;;12.60;99.90;;;;;;4977377;28;20951;-83
2022/11/04 12:23:53;;;;;;;11.87;10.63;;;12.60;99.90;;;;;;4975432;28;20475;-83
2022/11/04 12:26:31;;;;;;;11.87;11.07;;;12.50;99.90;;;;;;4974724;28;20462;-83
2022/11/04 12:29:13;;;;;;;11.77;10.70;;;12.50;99.90;;;;;;4975272;28;20835;-84
2022/11/04 12:31:51;;;;;;;9.87;7.33;;;12.40;99.90;;;;;;4974351;28;20451;-83
2022/11/04 12:34:29;;;;;;;7.80;5.57;;;12.30;99.90;;;;;;4974772;28;20466;-83
2022/11/04 12:37:11;;;;;;;7.83;6.40;;;12.40;99.90;;;;;;4974593;28;20961;-83
2022/11/04 12:40:03;;;;;;;10.23;5.90;;;12.30;99.90;;;;;;4976600;28;20846;-83
2022/11/04 12:42:39;;;;;;;12.10;10.87;;;12.20;99.90;;;;;;4974165;28;20566;-83
2022/11/04 12:45:18;;;;;;;9.57;8.77;;;12.30;99.90;;;;;;4974586;28;20451;-83
2022/11/04 12:47:46;;;;;;;8.67;7.87;;;12.30;99.90;;;;;;4974933;28;20490;-83
2022/11/04 12:50:33;;;;;;;6.80;6.20;;;12.30;99.90;;;;;;4976549;28;20459;-85
2022/11/04 12:53:16;;;;;;;10.03;5.33;;;12.40;99.90;;;;;;4977526;28;20478;-85
2022/11/04 12:55:52;;;;;;;7.03;6.33;;;12.50;99.90;;;;;;4977147;28;20839;-84
2022/11/04 12:58:34;;;;;;;8.80;4.87;;;12.60;99.90;;;;;;4977519;28;20469;-85
2022/11/04 13:01:06;;;;;;;6.37;3.90;;;12.70;99.90;;;;;;4978974;28;21031;-84
2022/11/04 13:03:39;;;;;;;8.20;3.57;;;12.90;99.90;;;;;;4977740;28;20479;-85
2022/11/04 13:06:12;;;;;;;6.87;2.97;;;13.00;99.90;;;;;;4978632;28;20466;-84
2022/11/04 13:08:44;;;;;;;11.00;2.93;;;13.20;99.90;;;;;;4977478;28;20458;-84
2022/11/04 13:11:25;;;;;;;6.13;3.10;;;13.30;99.90;;;;;;4977978;28;20482;-85
2022/11/04 13:14:00;;;;;;;9.77;2.63;;;13.20;99.90;;;;;;4976176;28;20454;-83